x

Neah Bay, - 6nm North Of Cape Flattery, Wa (traffic Separation Lighted Buoy) (46087) Wave Buoy

4:20am - Thu 24th Jan 2019 All times are PST. -8 hours from GMT.

  • Sig Wave height 8.2ft
  • Swell Direction
  • Peak Period 12s
  • Average Period 8s
  • Wind
    16mph, 18mph gusts
  • Sea Temp 49°f
  • Air Temp 47°f
  • Sea Pressure 1031.9mb
  • Neah Bay, - 6nm North Of Cape Flattery, Wa     (traffic Separation Lighted Buoy)
  • Neah Bay, - 6nm North Of Cape Flattery, Wa     (traffic Separation Lighted Buoy)

More Historic Weather Station data

Upgrade to MSW Pro to gain access to the past 30 days of data for over 8000 Wavebouys and Weather Stations around the globe.

Join

Comparision Forecast

View Surf forecast
   
Thu 01/24 4:20am 8ft 12s 8s 16 18 mph 1031.9mb 49f 47f
3:50am 7.5ft 12s 8s 16 20 mph 1031.9mb 49f 47f
3:20am 7.5ft 13s 8s 16 20 mph 1031.8mb 49f 47f
2:50am 6.5ft 11s 7s 18 20 mph 1031.9mb 49f 47f
2:20am 7ft 13s 8s 18 22 mph 1031.8mb 49f 47f
1:50am 7.5ft 13s 8s 16 20 mph 1031.9mb 49f 47f
1:20am 7.5ft 13s 8s 16 20 mph 1031.6mb 49f 47f
12:50am 8ft 12s 8s 18 22 mph 1031.4mb 49f 47f
12:20am 8ft 13s 8s 18 22 mph 1031.3mb 49f 46f
Wed 01/23 11:50pm 9ft 14s 8s 18 20 mph 1031.4mb 49f 47f
11:20pm 8ft 13s 8s 18 22 mph 1031.2mb 49f 47f
10:50pm 8ft 10s 8s 18 22 mph 1031.1mb 49f 47f
10:20pm 8ft 12s 8s 18 22 mph 1031.1mb 49f 47f
9:50pm 8ft 13s 8s 18 20 mph 1030.9mb 49f 47f
9:20pm 8ft 14s 8s 18 22 mph 1030.3mb 49f 47f
8:50pm 9ft 12s 8s 18 22 mph 1030mb 49f 47f
8:20pm 9ft 12s 8s 20 25 mph 1029.5mb 49f 47f
7:50pm 8ft 14s 8s 20 22 mph 1028.9mb 49f 47f
7:20pm 9.5ft 14s 8s 20 22 mph 1028.5mb 49f 47f
6:50pm 10ft 12s 8s 18 22 mph 1028.5mb 49f 48f
6:20pm 10.5ft 14s 8s 13 18 mph 1028.5mb 49f 48f
5:50pm 11ft 10s 9s 11 18 mph 1028.4mb 49f 48f
5:20pm 11ft 11s 8s 11 16 mph 1028.1mb 49f 48f
4:50pm 11.5ft 12s 9s 13 16 mph 1027.9mb 49f 48f
4:20pm 11.5ft 11s 8s 13 18 mph 1027.5mb 49f 48f
3:50pm 13ft 11s 9s 13 20 mph 1027.1mb 49f 48f
3:20pm 12.5ft 11s 9s 11 18 mph 1027mb 49f 48f
2:50pm 13ft 11s 9s 13 18 mph 1026.6mb 49f 48f
2:20pm 12.5ft 10s 9s 11 16 mph 1026.5mb 49f 48f
1:50pm 12.5ft 11s 9s 13 18 mph 1026.4mb 49f 48f
1:20pm 12.5ft 10s 9s 13 20 mph 1026mb 49f 48f
12:20pm 11ft 13s 9s 16 22 mph 1026mb 49f 47f
11:50am 11ft 11s 9s 18 22 mph 1025.8mb 49f 47f
11:20am 11ft 11s 9s 18 22 mph 1025.3mb 49f 47f
10:50am 10ft 12s 10s 20 27 mph 1024.4mb 49f 47f
10:20am 9.5ft 11s 9s 18 25 mph 1023.9mb 49f 47f
9:50am 10ft 12s 10s 18 25 mph 1023.1mb 49f 47f
9:20am 9.5ft 12s 10s 7 13 mph 1022.6mb 49f 48f
8:50am 9ft 11s 9s 7 9 mph 1021.7mb 49f 47f
8:20am 8.5ft 11s 9s 7 9 mph 1021mb 49f 47f
7:50am 7.5ft 10s 8s 13 18 mph 1020.3mb 49f 47f
7:20am 7ft 11s 8s 11 13 mph 1019.4mb 49f 47f
6:50am 7.5ft 16s 8s 7 9 mph 1017.9mb 49f 49f
6:20am 9ft 11s 8s  -  2 mph 1017mb 49f 48f
5:50am 10ft 11s 8s 4 7 mph 1016.4mb 49f 48f
5:20am 9.5ft 11s 8s 7 9 mph 1015.5mb 49f 47f
4:50am 11ft 10s 8s 9 11 mph 1014.6mb 49f 49f
4:20am 11ft 10s 7s 11 13 mph 1014.1mb 49f 49f
3:50am 12.5ft 10s 8s 11 16 mph 1013.5mb 49f 49f
3:20am 12ft 10s 8s 16 18 mph 1012.8mb 49f 49f
2:50am 11.5ft 11s 7s 16 22 mph 1012.4mb 49f 49f
2:20am 13ft 9s 7s 16 20 mph 1011.9mb 49f 49f
1:50am 11ft 10s 7s 20 22 mph 1011.3mb 49f 49f
1:20am 11ft 9s 7s 18 22 mph 1011.3mb 49f 49f
12:50am 12ft 10s 8s 20 25 mph 1011mb 49f 49f
12:20am 11.5ft 10s 7s 20 27 mph 1010.9mb 49f 50f
Tue 01/22 11:50pm 10.5ft 10s 7s 22 27 mph 1009.9mb 49f 50f
11:20pm 12ft 10s 8s 22 29 mph 1010.3mb 49f 50f
10:50pm 11ft 9s 8s 22 27 mph 1010.8mb 49f 51f
10:20pm 11ft 10s 8s 20 25 mph 1010.8mb 49f 51f
9:50pm 11ft 10s 8s 20 25 mph 1011.2mb 49f 51f
9:20pm 10.5ft 10s 8s 22 27 mph 1011.5mb 49f 51f
8:50pm 9.5ft 10s 8s 11 18 mph 1012mb 49f 49f
8:20pm 9ft 10s 7s 20 25 mph 1012.3mb 49f 46f
7:50pm 8ft 10s 6s 22 29 mph 1012.9mb 49f 46f
7:20pm 8ft 10s 7s 25 31 mph 1013mb 49f 46f
6:50pm 7.5ft 11s 6s 27 31 mph 1013.3mb 49f 46f
6:20pm 8ft 11s 7s 27 31 mph 1014.1mb 49f 46f
5:50pm 8ft 11s 7s 29 36 mph 1013.9mb 49f 45f
5:20pm 8ft 10s 6s 29 36 mph 1014.6mb 49f 45f
4:50pm 7ft 11s 7s 27 31 mph 1015.8mb 49f 45f
4:20pm 8ft 10s 7s 25 29 mph 1016.4mb 49f 46f
3:50pm 7ft 11s 6s 25 29 mph 1016.8mb 49f 46f
3:20pm 7.5ft 9s 7s 22 27 mph 1017.9mb 49f 46f
2:50pm 7.5ft 10s 7s 22 25 mph 1018.2mb 49f 46f
2:20pm 9.5ft 9s 8s 20 25 mph 1018.7mb 49f 46f
1:50pm 9.5ft 10s 8s 18 20 mph 1019.4mb 49f 46f
1:20pm 9ft 10s 8s 16 20 mph 1020.4mb 49f 46f
12:50pm 9.5ft 10s 7s 16 20 mph 1020.6mb 49f 46f
12:20pm 10.5ft 10s 8s 16 20 mph 1021mb 49f 45f
11:50am 11.5ft 10s 8s 18 25 mph 1021.5mb 49f 45f
11:20am 9.5ft 10s 7s 18 22 mph 1021.9mb 49f 45f
10:50am 9ft 9s 7s 20 29 mph 1022mb 49f 45f
10:20am 9ft 9s 7s 20 25 mph 1022.3mb 49f 45f
9:50am 8.5ft 10s 7s 22 29 mph 1021.8mb 49f 44f
9:20am 8ft 10s 6s 22 27 mph 1022.3mb 49f 44f
8:50am 8.5ft 9s 7s 22 27 mph 1022.6mb 49f 44f
8:20am 8.5ft 10s 7s 25 29 mph 1022.7mb 49f 44f
7:50am 8ft 9s 7s 25 29 mph 1022.8mb 49f 43f
7:20am 8ft 8s 6s 22 29 mph 1023.2mb 49f 44f
6:50am 8ft 10s 6s 22 27 mph 1023.5mb 49f 44f
6:20am 8ft 9s 7s 22 29 mph 1023.5mb 49f 43f
5:50am 8ft 8s 6s 22 27 mph 1023.7mb 49f 44f
5:20am 7ft 7s 6s 20 25 mph 1024mb 49f 43f
4:50am 7ft 7s 6s 20 25 mph 1024mb 49f 43f
4:20am 6.5ft 10s 6s 20 25 mph 1024.4mb 49f 44f
3:50am 6ft 10s 6s 18 22 mph 1024.7mb 49f 45f
3:20am 6ft 10s 6s 20 27 mph 1024.8mb 49f 45f
2:50am 6ft 10s 6s 18 29 mph 1025.4mb 49f 46f
2:20am 5ft 10s 6s 18 22 mph 1025.7mb 49f 46f
1:50am 5ft 11s 6s 20 25 mph 1025.6mb 49f 46f
1:20am 5ft 10s 6s 16 20 mph 1025.8mb 49f 46f
12:50am 5ft 10s 6s 16 20 mph 1025.7mb 49f 46f
12:20am 5ft 10s 6s 18 20 mph 1026.2mb 49f 46f
Mon 01/21 11:50pm 5.5ft 11s 6s 18 22 mph 1026.4mb 49f 46f
11:20pm 5ft 10s 6s 20 25 mph 1026.3mb 49f 46f
10:50pm 5.5ft 11s 7s 20 22 mph 1026.6mb 49f 46f
10:20pm 6ft 10s 7s 20 22 mph 1027.1mb 49f 46f
9:50pm 6ft 10s 7s 20 22 mph 1027mb 49f 46f
9:20pm 6ft 11s 8s 18 22 mph 1027.5mb 49f 46f
8:50pm 6ft 9s 8s 18 20 mph 1027.3mb 49f 46f
8:20pm 6.5ft 10s 8s 16 20 mph 1027.3mb 49f 46f
7:50pm 6.5ft 10s 8s 16 20 mph 1027.2mb 49f 46f
7:20pm 7ft 11s 8s 16 20 mph 1027.6mb 49f 46f
6:50pm 6ft 10s 8s 16 20 mph 1027.7mb 49f 46f
6:20pm 6.5ft 11s 8s 16 18 mph 1027.6mb 49f 46f
5:50pm 5.5ft 11s 7s 16 20 mph 1027.6mb 49f 46f
5:20pm 6ft 11s 7s 16 18 mph 1027.5mb 49f 47f
4:50pm 6ft 10s 7s 16 18 mph 1027.5mb 49f 46f
4:20pm 5.5ft 10s 7s 16 20 mph 1027.5mb 49f 46f
3:50pm 6ft 11s 7s 13 18 mph 1027.4mb 49f 46f
3:20pm 6ft 10s 8s 13 16 mph 1027.1mb 49f 46f
2:50pm 6ft 10s 8s 13 18 mph 1026.4mb 49f 46f
2:20pm 6ft 11s 8s 11 16 mph 1026mb 49f 46f
1:50pm 6ft 11s 8s 11 13 mph 1026.1mb 49f 46f
1:20pm 5.5ft 10s 7s 11 13 mph 1026.1mb 49f 46f
12:50pm 5.5ft 10s 8s 9 11 mph 1026.1mb 49f 46f
12:20pm 6ft 11s 8s 9 13 mph 1026mb 49f 46f
11:50am 5ft 10s 7s 9 13 mph 1025.8mb 49f 45f
11:20am 6ft 11s 8s 11 16 mph 1025.5mb 49f 44f
10:50am 5ft 11s 8s 11 13 mph 1025.2mb 49f 44f
9:50am 5.5ft 10s 8s 11 13 mph 1024.3mb 48f 43f
9:20am 6ft 11s 8s 9 11 mph 1023.7mb 48f 43f
8:50am 5.5ft 11s 8s 9 11 mph 1023.3mb 48f 43f
8:20am 7ft 11s 8s 9 13 mph 1022.5mb 49f 43f
7:50am 5ft 11s 8s 11 13 mph 1021.7mb 49f 43f
7:20am 6ft 11s 8s 9 11 mph 1021.7mb 49f 43f
6:50am 6ft 11s 8s 4 9 mph 1021.8mb 49f 43f
6:20am 6ft 11s 8s 2 4 mph 1021.5mb 49f 43f
5:50am 7ft 11s 7s 2 4 mph 1020.8mb 49f 43f
5:20am 6.5ft 11s 8s 4 7 mph 1020.4mb 49f 43f
4:50am 6ft 10s 7s 4 7 mph 1019.8mb 49f 43f
4:20am 6ft 11s 8s 2 4 mph 1019.5mb 49f 43f
3:50am 6.5ft 11s 8s 4 7 mph 1019.2mb 49f 43f
3:20am 7ft 11s 8s 4 7 mph 1018.9mb 49f 43f
2:50am 6.5ft 10s 8s 7 9 mph 1018.6mb 49f 43f
2:20am 7ft 10s 8s 7 11 mph 1018.1mb 48f 43f
1:50am 7ft 11s 8s 7 9 mph 1017.6mb 48f 44f
1:20am 9ft 11s 8s 4 9 mph 1017.3mb 49f 43f
12:50am 8ft 11s 8s 4 7 mph 1017.1mb 49f 43f
12:20am 8ft 11s 8s 7 11 mph 1016.9mb 49f 43f
Sun 01/20 11:50pm 8.5ft 10s 8s 9 13 mph 1016.7mb 49f 44f
11:20pm 8ft 10s 8s 9 13 mph 1016.1mb 49f 44f
10:50pm 7.5ft 11s 8s 9 11 mph 1015.8mb 49f 44f
10:20pm 8.5ft 11s 8s 9 13 mph 1015.6mb 49f 44f
9:50pm 8.5ft 11s 9s 9 16 mph 1015.1mb 49f 44f
9:20pm 8ft 11s 9s 11 16 mph 1014.8mb 49f 44f
8:50pm 7ft 11s 9s 11 13 mph 1014.5mb 49f 44f
8:20pm 8.5ft 11s 9s 11 13 mph 1014.3mb 49f 45f
7:50pm 8ft 11s 9s 9 11 mph 1014.2mb 49f 46f
7:20pm 8ft 11s 9s 7 9 mph 1014mb 49f 46f
6:50pm 8ft 11s 9s 7 9 mph 1013.9mb 49f 47f
6:20pm 7ft 11s 9s 2 4 mph 1013.9mb 49f 47f
5:50pm 8ft 11s 10s 2 4 mph 1013.9mb 50f 47f
5:20pm 7.5ft 12s 9s 2 4 mph 1013.7mb 50f 47f
4:50pm 7ft 12s 9s  -  2 mph 1013.4mb 50f 47f
4:20pm 7ft 11s 9s  -  2 mph 1013.1mb 50f 47f
3:50pm 7.5ft 11s 9s 2 4 mph 1012.6mb 50f 48f
3:20pm 9ft 11s 9s 2 4 mph 1012.3mb 50f 48f
2:50pm 9ft 11s 9s 2 4 mph 1012.4mb 50f 48f
2:20pm 8ft 11s 9s 2 4 mph 1012.2mb 50f 47f
1:50pm 9ft 12s 9s 2 4 mph 1012.4mb 50f 47f
1:20pm 9.5ft 11s 9s 2 4 mph 1012.3mb 50f 45f